Latest Weather Observations for Omeo

IDV60801

Issued at 8:35 pm EST Wednesday 1 October 2014 (issued every 30 minutes, with the page automatically refreshed every 10 minutes)

About weather observations | Map of weather stations | Latest weather observations for VIC | Other Formats
Station Details ID: 083090 Name: OMEO Lat: -37.10 Lon: 147.60 Height: 689.8 m
Data from the previous 72 hours. | See also: Recent months at Omeo
Date/Time
EST
Temp
°C
App
Temp
°C
Dew
Point
Rel
Hum
%
Delta-T
°C
Wind Press
QNH
hPa
Press
MSL
hPa
Rain
since 9 am
mm
Dir
 
Spd
km/h
Gust
km/h
Spd
kts
Gust
kts
01/08:30pm 4.0 0.9 1.2 82 1.1 SE 7 11 4 6 1023.4 1022.8 -
01/08:00pm 4.9 2.8 1.4 78 1.4 S 2 7 1 4 1023.1 1022.5 -
01/07:30pm 6.0 1.8 1.9 75 1.7 S 13 17 7 9 1022.3 1021.7 -
01/07:00pm 6.2 2.7 1.5 72 2.0 SSW 9 13 5 7 1022.0 1021.4 -
01/06:30pm 6.7 3.8 1.6 70 2.1 SE 6 11 3 6 1021.5 1020.8 -
01/06:00pm 7.9 4.1 2.0 66 2.5 S 11 19 6 10 1021.6 1020.9 -
01/05:30pm 9.7 6.0 2.3 60 3.3 S 11 17 6 9 1021.4 1020.7 -
01/05:00pm 9.7 5.6 2.3 60 3.3 SSE 13 22 7 12 1021.2 1020.5 -
01/04:30pm 11.1 6.6 2.2 54 4.0 SSE 15 24 8 13 1020.6 1020.0 -
01/04:00pm 12.1 8.1 3.1 54 4.1 SSE 13 24 7 13 1020.2 1019.5 -
01/03:30pm 11.7 7.4 0.8 47 4.7 S 13 19 7 10 1020.0 1019.3 -
01/03:00pm 11.5 7.7 1.5 50 4.4 S 11 22 6 12 1020.2 1019.5 0.0
01/02:30pm 11.2 6.5 0.9 49 4.5 S 15 24 8 13 1020.3 1019.6 -
01/02:00pm 12.4 7.8 1.4 47 4.9 SSE 15 24 8 13 1020.1 1019.4 -
01/01:30pm 12.5 7.8 3.2 53 4.3 SSE 17 26 9 14 1020.2 1019.5 -
01/01:00pm 11.8 6.5 1.7 50 4.5 SSE 19 32 10 17 1020.5 1019.9 -
01/12:30pm 12.1 7.0 0.8 46 4.9 S 17 26 9 14 1020.7 1020.1 -
01/12:00pm 11.6 7.0 1.3 49 4.5 SSE 15 26 8 14 1020.7 1020.1 -
01/11:30am 10.5 4.7 -0.3 47 4.5 S 20 33 11 18 1021.0 1020.4 0.0
01/11:00am 11.2 6.3 1.7 52 4.2 S 17 30 9 16 1020.9 1020.3 0.0
01/10:30am 9.6 3.8 0.2 52 3.9 S 20 35 11 19 1020.9 1020.3 0.0
01/10:00am 9.4 3.9 0.6 54 3.7 S 19 39 10 21 1020.9 1020.3 0.0
01/09:30am 8.9 3.3 0.1 54 3.7 S 19 35 10 19 1020.6 1020.7 0.0
01/09:00am 8.5 3.4 -1.6 49 4.0 S 15 26 8 14 1020.2 1020.3 0.6
01/08:30am 8.1 2.2 -1.1 52 3.7 S 20 35 11 19 1019.9 1020.0 0.6
01/08:00am 7.7 1.8 -0.8 55 3.4 S 20 28 11 15 1019.0 1019.1 0.6
01/07:30am 6.6 3.7 -1.1 58 3.0 ESE 4 11 2 6 1018.5 1018.6 0.6
01/07:00am 5.3 2.0 0.3 70 2.0 ESE 7 11 4 6 1018.2 1018.2 0.6
01/06:30am 3.2 0.7 -1.2 73 1.7 SW 2 7 1 4 1017.7 1017.8 0.6
01/06:00am 2.5 -1.0 -1.3 76 1.4 SE 7 9 4 5 1017.1 1017.1 0.6
01/05:30am 3.5 0.1 -2.0 67 2.0 S 6 13 3 7 1016.4 1016.5 0.6
01/05:00am 3.7 -0.3 -2.0 66 2.1 SSW 9 15 5 8 1015.8 1015.8 0.6
01/04:30am 2.9 -1.0 -1.5 73 1.6 SSE 9 17 5 9 1015.4 1015.4 0.6
01/04:00am 3.6 0.3 -1.0 72 1.8 S 6 11 3 6 1014.6 1014.6 0.6
01/03:30am 3.6 1.4 -1.2 71 1.8 CALM 0 7 0 4 1014.1 1014.1 0.6
01/03:00am 3.8 0.3 -2.6 63 2.4 NW 6 7 3 4 1013.7 1013.7 0.6
01/02:30am 4.9 1.2 -3.1 56 2.9 N 7 11 4 6 1013.1 1013.1 0.6
01/02:00am 4.5 0.4 -2.8 59 2.7 NW 9 15 5 8 1012.8 1012.8 0.6
01/01:30am 4.9 0.0 -3.1 56 2.9 W 13 28 7 15 1012.7 1012.7 0.6
01/01:00am 5.4 -0.2 -2.9 55 3.1 NW 17 26 9 14 1012.4 1012.4 0.6
01/12:30am 5.3 0.5 -2.3 58 2.9 NNW 13 20 7 11 1011.7 1011.7 0.6
01/12:00am 5.4 1.1 -1.5 61 2.7 NW 11 17 6 9 1012.1 1012.0 0.6
 
Date/Time
EST
Temp
°C
App
Temp
°C
Dew
Point
Rel
Hum
%
Delta-T
°C
Wind Press
QNH
hPa
Press
MSL
hPa
Rain
since 9 am
mm
Dir
 
Spd
km/h
Gust
km/h
Spd
kts
Gust
kts
30/11:30pm 6.5 0.5 -1.4 57 3.1 W 20 33 11 18 1011.7 1011.7 0.6
30/11:00pm 6.7 0.4 -1.0 58 3.1 W 22 41 12 22 1011.7 1011.7 0.6
30/10:30pm 6.9 0.2 -1.3 56 3.2 W 24 44 13 24 1011.0 1011.0 0.6
30/10:00pm 7.6 1.8 0.1 59 3.1 W 20 33 11 18 1011.1 1011.1 0.6
30/09:30pm 7.7 2.8 2.2 68 2.4 W 17 32 9 17 1011.3 1011.3 0.6
30/09:00pm 7.9 1.9 3.4 73 2.0 WSW 24 41 13 22 1010.8 1010.7 0.6
30/08:42pm 10.6 3.6 3.9 63 3.1 W 30 52 16 28 1010.1 1010.1 0.4
30/08:30pm 9.7 5.1 5.7 76 1.9 S 19 35 10 19 1009.3 1009.2 0.4
30/08:24pm 9.2 5.1 4.2 71 2.3 S 15 30 8 16 1009.0 1008.9 0.4
30/08:00pm 14.3 10.1 5.9 57 4.2 W 17 24 9 13 1008.0 1007.9 0.2
30/07:30pm 14.2 10.1 6.3 59 3.9 NW 17 22 9 12 1006.1 1006.0 0.2
30/07:00pm 13.4 8.9 7.0 65 3.2 NNW 20 30 11 16 1005.7 1005.5 0.2
30/06:30pm 13.9 9.9 6.5 61 3.7 N 17 24 9 13 1006.1 1006.0 0.2
30/06:01pm 14.6 8.6 7.2 61 3.8 NNW 28 59 15 32 1006.6 1006.5 0.0
30/06:00pm 14.6 8.9 6.9 60 3.9 NNW 26 59 14 32 1006.7 1006.6 0.0
30/05:30pm 14.9 9.5 6.5 57 4.2 NNW 24 35 13 19 1006.3 1006.2 0.0
30/05:03pm 15.5 8.9 6.2 54 4.7 NNW 30 48 16 26 1006.0 1005.8 0.0
30/05:00pm 16.1 9.0 5.4 49 5.3 NNW 32 48 17 26 1006.2 1006.1 0.0
30/04:30pm 17.1 9.6 4.4 43 6.2 NNW 33 54 18 29 1006.3 1006.2 0.0
30/04:02pm 18.0 11.4 4.2 40 6.8 NW 28 48 15 26 1006.0 1005.8 0.0
30/04:00pm 17.9 11.7 4.1 40 6.8 NW 26 43 14 23 1006.1 1006.0 0.0
30/03:30pm 18.8 11.4 4.2 38 7.2 NW 32 57 17 31 1006.3 1006.2 0.0
30/03:00pm 18.9 11.4 3.5 36 7.5 WNW 32 59 17 32 1006.2 1006.1 0.0
30/02:30pm 19.5 12.1 4.0 36 7.7 WNW 32 50 17 27 1006.5 1006.4 0.0
30/02:00pm 19.3 11.4 4.3 37 7.5 NNW 35 63 19 34 1006.9 1006.8 0.0
30/01:30pm 19.3 11.4 2.2 32 8.1 NNW 33 61 18 33 1006.6 1006.5 0.0
30/01:00pm 19.1 8.6 1.6 31 8.3 NNW 46 65 25 35 1007.1 1007.0 0.0
30/12:30pm 19.3 9.9 2.2 32 8.1 NNW 41 65 22 35 1007.8 1007.7 0.0
30/12:00pm 19.5 10.6 3.2 34 8.0 NNW 39 57 21 31 1008.2 1008.1 0.0
30/11:30am 19.4 12.3 5.5 40 7.1 NW 32 57 17 31 1008.6 1008.6 0.0
30/11:00am 18.9 11.8 5.4 41 6.8 NW 32 54 17 29 1009.3 1009.2 0.0
30/10:41am 18.7 12.2 6.5 45 6.3 NNW 30 48 16 26 1009.6 1009.5 0.0
30/10:30am 18.5 11.4 5.7 43 6.5 NNW 32 46 17 25 1009.8 1009.8 0.0
30/10:00am 17.7 11.8 7.4 51 5.4 N 28 46 15 25 1010.4 1010.3 0.0
30/09:30am 16.9 10.1 6.7 51 5.2 N 32 50 17 27 1010.8 1010.7 0.0
30/09:29am 16.8 10.1 7.4 54 4.9 N 32 50 17 27 1010.9 1010.8 0.0
30/09:00am 16.4 9.6 7.1 54 4.8 NNW 32 48 17 26 1010.9 1010.8 0.0
30/08:30am 15.6 9.6 6.9 56 4.4 N 28 39 15 21 1011.1 1011.1 0.0
30/08:00am 14.6 8.9 6.9 60 3.9 N 26 37 14 20 1011.4 1011.4 0.0
30/07:30am 12.9 8.4 6.9 67 3.0 N 20 30 11 16 1011.5 1011.5 0.0
30/07:00am 11.4 7.3 6.3 71 2.5 N 17 24 9 13 1011.7 1011.7 0.0
30/06:30am 9.9 6.5 6.1 77 1.8 NNW 13 24 7 13 1011.9 1011.8 0.0
30/06:00am 7.9 3.6 5.2 83 1.3 NNW 17 22 9 12 1011.6 1011.6 0.0
30/05:30am 8.5 4.2 5.4 81 1.5 N 17 24 9 13 1011.5 1011.5 0.0
30/05:00am 7.7 3.8 5.5 86 1.0 NNW 15 20 8 11 1011.5 1011.5 0.0
30/04:30am 7.5 3.6 5.3 86 1.0 N 15 19 8 10 1011.5 1011.5 0.0
30/04:00am 8.1 4.7 5.7 85 1.1 NNW 13 19 7 10 1011.6 1011.6 0.0
30/03:30am 7.7 3.8 5.2 84 1.2 N 15 20 8 11 1012.0 1011.9 0.0
30/03:00am 9.1 5.3 5.8 80 1.6 N 15 20 8 11 1012.4 1012.4 0.0
30/02:30am 8.7 6.0 5.4 80 1.5 NW 9 15 5 8 1012.7 1012.7 0.0
30/02:00am 9.6 6.9 5.8 77 1.8 NNE 9 17 5 9 1012.9 1012.9 0.0
30/01:30am 9.9 6.9 6.2 78 1.8 NNW 11 20 6 11 1013.2 1013.2 0.0
30/01:00am 9.2 6.5 5.8 79 1.6 WNW 9 13 5 7 1013.5 1013.5 0.0
30/12:30am 9.5 6.5 6.0 79 1.7 NNW 11 15 6 8 1013.9 1013.9 0.0
30/12:00am 10.0 7.0 6.2 77 1.8 N 11 17 6 9 1014.2 1014.2 0.0
 
Date/Time
EST
Temp
°C
App
Temp
°C
Dew
Point
Rel
Hum
%
Delta-T
°C
Wind Press
QNH
hPa
Press
MSL
hPa
Rain
since 9 am
mm
Dir
 
Spd
km/h
Gust
km/h
Spd
kts
Gust
kts
29/11:30pm 9.4 6.3 5.6 77 1.8 N 11 15 6 8 1014.4 1014.4 0.0
29/11:00pm 9.9 6.8 5.7 75 2.0 N 11 17 6 9 1014.7 1014.8 0.0
29/10:30pm 9.5 6.3 5.3 75 2.0 NNW 11 15 6 8 1014.8 1014.9 0.0
29/10:00pm 9.4 6.5 4.8 73 2.1 NNW 9 13 5 7 1014.7 1014.8 0.0
29/09:30pm 10.3 7.5 5.1 70 2.5 NNW 9 11 5 6 1015.0 1015.0 0.0
29/09:00pm 11.5 8.3 5.2 65 3.0 N 11 17 6 9 1015.0 1015.0 0.0
29/08:30pm 11.4 7.8 5.1 65 3.0 N 13 17 7 9 1015.1 1015.1 0.0
29/08:00pm 11.7 8.3 4.2 60 3.5 N 11 19 6 10 1015.0 1015.0 0.0
29/07:30pm 13.2 9.4 4.1 54 4.3 N 13 17 7 9 1014.8 1014.9 0.0
29/07:00pm 14.0 9.4 3.8 50 4.8 N 17 24 9 13 1014.4 1014.4 0.0
29/06:30pm 14.4 9.4 3.5 48 5.1 N 19 28 10 15 1014.1 1014.1 0.0
29/06:00pm 15.1 10.0 3.9 47 5.4 N 20 28 11 15 1013.6 1013.6 0.0
29/05:30pm 16.5 11.4 4.2 44 6.0 N 20 28 11 15 1013.3 1013.3 0.0
29/05:00pm 17.7 12.1 3.6 39 6.8 N 22 33 12 18 1013.1 1013.1 0.0
29/04:30pm 18.8 12.5 3.8 37 7.3 N 26 37 14 20 1012.8 1012.8 0.0
29/04:00pm 19.3 12.6 3.5 35 7.7 N 28 39 15 21 1012.7 1012.7 0.0
29/03:30pm 20.1 15.6 6.8 42 7.0 N 20 30 11 16 1012.6 1012.6 0.0
29/03:00pm 20.2 14.2 5.1 37 7.7 N 26 37 14 20 1012.6 1012.6 0.0
29/02:30pm 20.5 15.2 6.8 41 7.2 N 24 39 13 21 1012.5 1012.5 0.0
29/02:00pm 20.6 14.9 5.0 36 7.9 N 24 37 13 20 1012.4 1012.4 0.0
29/01:30pm 20.5 15.2 4.9 36 7.9 N 22 32 12 17 1012.7 1012.7 0.0
29/01:00pm 20.3 14.7 5.5 38 7.6 N 24 35 13 19 1012.8 1012.8 0.0
29/12:30pm 19.6 13.3 3.7 35 7.8 N 26 37 14 20 1013.1 1013.1 0.0
29/12:00pm 19.7 13.6 6.4 42 6.9 N 28 39 15 21 1013.1 1013.1 0.0
29/11:30am 19.5 13.2 5.9 41 7.0 N 28 39 15 21 1013.2 1013.2 0.0
29/11:00am 18.7 12.7 5.5 42 6.7 N 26 39 14 21 1013.3 1013.3 0.0
29/10:30am 18.5 12.4 6.4 45 6.2 N 28 39 15 21 1013.3 1013.3 0.0
29/10:00am 18.1 12.8 6.9 48 5.8 N 24 35 13 19 1013.5 1013.5 0.0
29/09:30am 17.2 11.4 6.4 49 5.5 N 26 37 14 20 1013.7 1013.7 0.0
29/09:00am 16.3 10.4 5.6 49 5.3 N 26 37 14 20 1013.8 1013.8 0.2
29/08:30am 16.3 11.2 6.2 51 5.1 N 22 32 12 17 1013.6 1013.6 0.2
29/08:00am 15.1 9.9 5.6 53 4.7 N 22 30 12 16 1013.5 1013.5 0.2
29/07:30am 14.4 11.1 6.3 58 4.0 N 13 20 7 11 1013.3 1013.3 0.2
29/07:00am 13.1 10.3 5.3 59 3.8 N 9 15 5 8 1013.1 1013.1 0.2
29/06:30am 12.4 8.0 4.9 60 3.6 N 17 24 9 13 1012.4 1012.4 0.2
29/06:00am 12.1 7.7 4.8 61 3.5 NNW 17 24 9 13 1012.0 1011.9 0.2
29/05:30am 12.4 8.3 4.6 59 3.7 NNW 15 20 8 11 1011.6 1011.6 0.2
29/05:00am 14.1 9.6 4.1 51 4.8 NNW 17 26 9 14 1011.3 1011.3 0.2
29/04:30am 15.4 9.9 3.9 46 5.5 NNW 22 35 12 19 1010.9 1010.8 0.2
29/04:00am 16.3 10.8 4.0 44 6.0 NNW 22 37 12 20 1010.6 1010.5 0.2
29/03:30am 16.8 10.5 3.8 42 6.3 NNW 26 39 14 21 1010.0 1010.0 0.2
29/03:11am 16.5 9.8 3.9 43 6.1 NNW 28 46 15 25 1009.6 1009.5 0.2
29/03:00am 16.9 10.6 3.6 41 6.4 NNW 26 39 14 21 1009.5 1009.4 0.2
29/02:30am 17.4 9.4 3.7 40 6.6 NNW 35 56 19 30 1009.7 1009.6 0.2
29/02:12am 17.6 9.5 3.5 39 6.8 NNW 35 54 19 29 1009.8 1009.8 0.2
29/02:00am 17.6 8.9 3.9 40 6.7 NNW 39 56 21 30 1009.9 1009.9 0.2
29/01:30am 17.8 8.3 3.7 39 6.8 NNW 43 61 23 33 1010.1 1010.1 0.2
29/01:00am 17.8 8.3 3.7 39 6.9 NNW 43 65 23 35 1010.1 1010.1 0.2
29/12:30am 18.0 8.3 3.9 39 6.9 NNW 44 63 24 34 1009.7 1009.6 0.2
29/12:00am 17.9 7.9 4.5 41 6.6 NNW 46 72 25 39 1009.8 1009.8 0.2
 
Date/Time
EST
Temp
°C
App
Temp
°C
Dew
Point
Rel
Hum
%
Delta-T
°C
Wind Press
QNH
hPa
Press
MSL
hPa
Rain
since 9 am
mm
Dir
 
Spd
km/h
Gust
km/h
Spd
kts
Gust
kts
28/11:35pm 17.8 8.4 4.4 41 6.6 NNW 43 67 23 36 1009.9 1009.9 0.2
28/11:30pm 17.8 8.5 5.1 43 6.3 NNW 43 59 23 32 1010.0 1010.0 0.2
28/11:01pm 17.3 9.3 5.6 46 5.9 NNW 37 56 20 30 1010.9 1010.8 0.2
28/11:00pm 17.4 9.0 5.7 46 5.9 NNW 39 56 21 30 1010.9 1010.8 0.2
28/10:34pm 16.8 9.6 6.0 49 5.5 NNW 33 52 18 28 1011.4 1011.4 0.2
28/10:30pm 16.5 9.6 6.6 52 5.0 NNW 32 43 17 23 1011.4 1011.4 0.2
28/10:00pm 15.8 10.3 7.6 58 4.2 NNW 26 35 14 19 1012.1 1012.0 0.2
28/09:35pm 16.3 10.1 7.8 57 4.4 N 30 50 16 27 1012.5 1012.5 0.2
28/09:30pm 15.9 10.2 8.2 60 4.0 N 28 43 15 23 1012.5 1012.5 0.2
28/09:00pm 15.9 9.3 8.6 62 3.9 NNW 33 46 18 25 1012.7 1012.7 0.2

Other Formats:

Comma delimited format used in spreadsheet applications
http://www.bom.gov.au/fwo/IDV60801/IDV60801.94908.axf

JavaScript Object Notation format (JSON) in row-major order
http://www.bom.gov.au/fwo/IDV60801/IDV60801.94908.json